sensor_id;sensor_type;location;lat;lon;timestamp;P1;durP1;ratioP1;P2;durP2;ratioP2
41077;SDS011;26823;42.662;23.352;2022-12-18T00:01:32;5.00;;;2.88;;
41077;SDS011;26823;42.662;23.352;2022-12-18T00:04:00;4.10;;;3.22;;
41077;SDS011;26823;42.662;23.352;2022-12-18T00:06:28;3.88;;;3.08;;
41077;SDS011;26823;42.662;23.352;2022-12-18T00:08:54;4.75;;;3.15;;
41077;SDS011;26823;42.662;23.352;2022-12-18T00:11:23;4.30;;;2.90;;
41077;SDS011;26823;42.662;23.352;2022-12-18T00:13:50;4.75;;;2.92;;
41077;SDS011;26823;42.662;23.352;2022-12-18T00:16:20;4.53;;;3.42;;
41077;SDS011;26823;42.662;23.352;2022-12-18T00:18:48;5.03;;;3.22;;
41077;SDS011;26823;42.662;23.352;2022-12-18T00:21:14;4.90;;;3.13;;
41077;SDS011;26823;42.662;23.352;2022-12-18T00:23:42;4.30;;;3.30;;
41077;SDS011;26823;42.662;23.352;2022-12-18T00:26:12;3.80;;;3.35;;
41077;SDS011;26823;42.662;23.352;2022-12-18T00:28:42;7.43;;;3.80;;
41077;SDS011;26823;42.662;23.352;2022-12-18T00:31:09;5.30;;;3.65;;
41077;SDS011;26823;42.662;23.352;2022-12-18T00:33:37;6.15;;;3.60;;
41077;SDS011;26823;42.662;23.352;2022-12-18T00:36:10;5.68;;;3.45;;
41077;SDS011;26823;42.662;23.352;2022-12-18T00:38:43;5.40;;;3.50;;
41077;SDS011;26823;42.662;23.352;2022-12-18T00:41:09;4.93;;;3.47;;
41077;SDS011;26823;42.662;23.352;2022-12-18T00:43:36;5.00;;;3.47;;
41077;SDS011;26823;42.662;23.352;2022-12-18T00:46:03;6.00;;;3.60;;
41077;SDS011;26823;42.662;23.352;2022-12-18T00:48:28;6.32;;;3.75;;
41077;SDS011;26823;42.662;23.352;2022-12-18T00:50:54;6.05;;;4.00;;
41077;SDS011;26823;42.662;23.352;2022-12-18T00:53:20;6.75;;;3.92;;
41077;SDS011;26823;42.662;23.352;2022-12-18T00:55:46;8.07;;;4.35;;
41077;SDS011;26823;42.662;23.352;2022-12-18T00:58:12;5.45;;;3.83;;
41077;SDS011;26823;42.662;23.352;2022-12-18T01:00:39;4.53;;;3.65;;
41077;SDS011;26823;42.662;23.352;2022-12-18T01:03:05;5.53;;;3.75;;
41077;SDS011;26823;42.662;23.352;2022-12-18T01:05:30;7.72;;;4.28;;
41077;SDS011;26823;42.662;23.352;2022-12-18T01:07:56;7.65;;;4.45;;
41077;SDS011;26823;42.662;23.352;2022-12-18T01:10:22;6.95;;;4.85;;
41077;SDS011;26823;42.662;23.352;2022-12-18T01:12:48;5.60;;;4.03;;
41077;SDS011;26823;42.662;23.352;2022-12-18T01:15:14;7.22;;;4.53;;
41077;SDS011;26823;42.662;23.352;2022-12-18T01:17:40;7.07;;;5.00;;
41077;SDS011;26823;42.662;23.352;2022-12-18T01:20:06;6.05;;;3.90;;
41077;SDS011;26823;42.662;23.352;2022-12-18T01:22:33;5.70;;;3.85;;
41077;SDS011;26823;42.662;23.352;2022-12-18T01:24:59;4.65;;;3.60;;
41077;SDS011;26823;42.662;23.352;2022-12-18T01:27:25;6.07;;;3.70;;
41077;SDS011;26823;42.662;23.352;2022-12-18T01:29:50;7.07;;;4.45;;
41077;SDS011;26823;42.662;23.352;2022-12-18T01:32:16;5.20;;;4.00;;
41077;SDS011;26823;42.662;23.352;2022-12-18T01:34:42;6.00;;;3.90;;
41077;SDS011;26823;42.662;23.352;2022-12-18T01:37:07;7.15;;;4.50;;
41077;SDS011;26823;42.662;23.352;2022-12-18T01:39:33;7.60;;;4.10;;
41077;SDS011;26823;42.662;23.352;2022-12-18T01:41:59;5.57;;;3.50;;
41077;SDS011;26823;42.662;23.352;2022-12-18T01:47:17;6.15;;;4.53;;
41077;SDS011;26823;42.662;23.352;2022-12-18T01:49:52;7.50;;;4.18;;
41077;SDS011;26823;42.662;23.352;2022-12-18T01:52:19;6.53;;;4.18;;
41077;SDS011;26823;42.662;23.352;2022-12-18T01:54:46;5.45;;;3.72;;
41077;SDS011;26823;42.662;23.352;2022-12-18T01:57:13;7.22;;;3.60;;
41077;SDS011;26823;42.662;23.352;2022-12-18T01:59:39;6.47;;;3.83;;
41077;SDS011;26823;42.662;23.352;2022-12-18T02:02:07;6.07;;;3.97;;
41077;SDS011;26823;42.662;23.352;2022-12-18T02:04:34;6.90;;;4.05;;
41077;SDS011;26823;42.662;23.352;2022-12-18T02:09:39;5.85;;;3.70;;
41077;SDS011;26823;42.662;23.352;2022-12-18T02:12:20;6.78;;;4.13;;
41077;SDS011;26823;42.662;23.352;2022-12-18T02:14:54;6.10;;;4.32;;
41077;SDS011;26823;42.662;23.352;2022-12-18T02:17:25;6.35;;;4.22;;
41077;SDS011;26823;42.662;23.352;2022-12-18T02:28:19;6.45;;;4.43;;
41077;SDS011;26823;42.662;23.352;2022-12-18T02:30:49;8.98;;;4.68;;
41077;SDS011;26823;42.662;23.352;2022-12-18T02:33:17;6.70;;;4.20;;
41077;SDS011;26823;42.662;23.352;2022-12-18T02:35:45;6.75;;;4.55;;
41077;SDS011;26823;42.662;23.352;2022-12-18T02:38:11;6.97;;;4.22;;
41077;SDS011;26823;42.662;23.352;2022-12-18T02:40:39;6.35;;;3.85;;
41077;SDS011;26823;42.662;23.352;2022-12-18T02:43:11;4.50;;;3.80;;
41077;SDS011;26823;42.662;23.352;2022-12-18T02:45:53;5.68;;;3.88;;
41077;SDS011;26823;42.662;23.352;2022-12-18T02:48:22;5.93;;;4.07;;
41077;SDS011;26823;42.662;23.352;2022-12-18T02:54:04;6.13;;;3.90;;
41077;SDS011;26823;42.662;23.352;2022-12-18T02:56:38;8.70;;;4.03;;
41077;SDS011;26823;42.662;23.352;2022-12-18T02:59:15;5.93;;;4.15;;
41077;SDS011;26823;42.662;23.352;2022-12-18T03:01:54;6.50;;;4.20;;
41077;SDS011;26823;42.662;23.352;2022-12-18T03:04:28;5.78;;;4.10;;
41077;SDS011;26823;42.662;23.352;2022-12-18T03:06:59;5.47;;;3.88;;
41077;SDS011;26823;42.662;23.352;2022-12-18T03:09:31;5.63;;;3.97;;
41077;SDS011;26823;42.662;23.352;2022-12-18T03:12:04;7.63;;;4.57;;
41077;SDS011;26823;42.662;23.352;2022-12-18T03:14:54;6.20;;;4.22;;
41077;SDS011;26823;42.662;23.352;2022-12-18T03:17:29;6.82;;;4.28;;
41077;SDS011;26823;42.662;23.352;2022-12-18T03:19:58;6.68;;;3.97;;
41077;SDS011;26823;42.662;23.352;2022-12-18T03:22:29;6.45;;;4.25;;
41077;SDS011;26823;42.662;23.352;2022-12-18T03:24:59;8.80;;;4.30;;
41077;SDS011;26823;42.662;23.352;2022-12-18T03:27:27;6.40;;;4.10;;
41077;SDS011;26823;42.662;23.352;2022-12-18T03:30:03;5.13;;;4.10;;
41077;SDS011;26823;42.662;23.352;2022-12-18T03:35:13;6.63;;;4.40;;
41077;SDS011;26823;42.662;23.352;2022-12-18T03:37:43;5.35;;;3.55;;
41077;SDS011;26823;42.662;23.352;2022-12-18T03:40:09;8.02;;;4.75;;
41077;SDS011;26823;42.662;23.352;2022-12-18T03:42:46;7.05;;;4.22;;
41077;SDS011;26823;42.662;23.352;2022-12-18T03:45:27;5.88;;;3.47;;
41077;SDS011;26823;42.662;23.352;2022-12-18T03:48:00;7.30;;;4.97;;
41077;SDS011;26823;42.662;23.352;2022-12-18T03:50:39;6.78;;;4.25;;
41077;SDS011;26823;42.662;23.352;2022-12-18T03:53:58;7.47;;;3.97;;
41077;SDS011;26823;42.662;23.352;2022-12-18T03:56:09;6.65;;;4.07;;
41077;SDS011;26823;42.662;23.352;2022-12-18T03:58:36;5.90;;;4.03;;
41077;SDS011;26823;42.662;23.352;2022-12-18T04:01:05;6.90;;;4.25;;
41077;SDS011;26823;42.662;23.352;2022-12-18T04:03:33;6.18;;;4.28;;
41077;SDS011;26823;42.662;23.352;2022-12-18T04:06:00;7.95;;;4.85;;
41077;SDS011;26823;42.662;23.352;2022-12-18T04:08:27;5.80;;;3.38;;
41077;SDS011;26823;42.662;23.352;2022-12-18T04:10:54;6.38;;;4.53;;
41077;SDS011;26823;42.662;23.352;2022-12-18T04:13:23;6.88;;;4.22;;
41077;SDS011;26823;42.662;23.352;2022-12-18T04:15:49;7.88;;;4.38;;
41077;SDS011;26823;42.662;23.352;2022-12-18T04:18:15;7.03;;;3.95;;
41077;SDS011;26823;42.662;23.352;2022-12-18T04:20:41;5.88;;;3.78;;
41077;SDS011;26823;42.662;23.352;2022-12-18T04:23:06;7.63;;;4.25;;
41077;SDS011;26823;42.662;23.352;2022-12-18T04:25:32;7.30;;;4.90;;
41077;SDS011;26823;42.662;23.352;2022-12-18T04:27:57;8.07;;;4.70;;
41077;SDS011;26823;42.662;23.352;2022-12-18T04:30:23;7.75;;;4.13;;
41077;SDS011;26823;42.662;23.352;2022-12-18T04:32:48;6.90;;;3.95;;
41077;SDS011;26823;42.662;23.352;2022-12-18T04:35:13;8.15;;;4.30;;
41077;SDS011;26823;42.662;23.352;2022-12-18T04:37:39;7.82;;;4.68;;
41077;SDS011;26823;42.662;23.352;2022-12-18T04:40:04;8.07;;;5.00;;
41077;SDS011;26823;42.662;23.352;2022-12-18T04:42:30;7.03;;;5.03;;
41077;SDS011;26823;42.662;23.352;2022-12-18T04:44:56;7.03;;;4.60;;
41077;SDS011;26823;42.662;23.352;2022-12-18T04:47:21;9.38;;;5.72;;
41077;SDS011;26823;42.662;23.352;2022-12-18T04:49:47;9.23;;;5.78;;
41077;SDS011;26823;42.662;23.352;2022-12-18T04:52:12;9.35;;;5.25;;
41077;SDS011;26823;42.662;23.352;2022-12-18T04:54:37;10.13;;;5.35;;
41077;SDS011;26823;42.662;23.352;2022-12-18T04:57:03;9.75;;;5.53;;
41077;SDS011;26823;42.662;23.352;2022-12-18T04:59:28;7.30;;;5.18;;
41077;SDS011;26823;42.662;23.352;2022-12-18T05:01:54;11.07;;;5.15;;
41077;SDS011;26823;42.662;23.352;2022-12-18T05:04:19;10.07;;;6.80;;
41077;SDS011;26823;42.662;23.352;2022-12-18T05:06:45;8.23;;;5.20;;
41077;SDS011;26823;42.662;23.352;2022-12-18T05:09:10;9.48;;;5.68;;
41077;SDS011;26823;42.662;23.352;2022-12-18T05:11:50;7.38;;;4.63;;
41077;SDS011;26823;42.662;23.352;2022-12-18T05:14:22;10.77;;;5.85;;
41077;SDS011;26823;42.662;23.352;2022-12-18T05:16:48;7.95;;;4.85;;
41077;SDS011;26823;42.662;23.352;2022-12-18T05:19:13;9.93;;;5.28;;
41077;SDS011;26823;42.662;23.352;2022-12-18T05:21:39;9.55;;;5.53;;
41077;SDS011;26823;42.662;23.352;2022-12-18T05:24:04;11.23;;;6.50;;
41077;SDS011;26823;42.662;23.352;2022-12-18T05:26:30;9.15;;;5.13;;
41077;SDS011;26823;42.662;23.352;2022-12-18T05:28:55;12.82;;;5.75;;
41077;SDS011;26823;42.662;23.352;2022-12-18T05:31:21;12.95;;;5.97;;
41077;SDS011;26823;42.662;23.352;2022-12-18T05:33:46;13.82;;;6.03;;
41077;SDS011;26823;42.662;23.352;2022-12-18T05:36:12;10.10;;;6.88;;
41077;SDS011;26823;42.662;23.352;2022-12-18T05:38:38;10.40;;;6.10;;
41077;SDS011;26823;42.662;23.352;2022-12-18T05:41:04;9.70;;;5.85;;
41077;SDS011;26823;42.662;23.352;2022-12-18T05:43:30;12.73;;;7.03;;
41077;SDS011;26823;42.662;23.352;2022-12-18T05:45:56;10.20;;;5.93;;
41077;SDS011;26823;42.662;23.352;2022-12-18T05:48:22;8.43;;;5.75;;
41077;SDS011;26823;42.662;23.352;2022-12-18T05:50:48;8.82;;;5.53;;
41077;SDS011;26823;42.662;23.352;2022-12-18T05:53:15;9.32;;;5.63;;
41077;SDS011;26823;42.662;23.352;2022-12-18T05:55:49;10.82;;;6.35;;
41077;SDS011;26823;42.662;23.352;2022-12-18T05:58:14;11.75;;;5.65;;
41077;SDS011;26823;42.662;23.352;2022-12-18T06:00:41;10.25;;;5.70;;
41077;SDS011;26823;42.662;23.352;2022-12-18T06:03:09;11.07;;;5.95;;
41077;SDS011;26823;42.662;23.352;2022-12-18T06:05:40;12.20;;;6.18;;
41077;SDS011;26823;42.662;23.352;2022-12-18T06:08:08;10.15;;;5.72;;
41077;SDS011;26823;42.662;23.352;2022-12-18T06:10:34;11.45;;;6.38;;
41077;SDS011;26823;42.662;23.352;2022-12-18T06:12:59;9.27;;;6.15;;
41077;SDS011;26823;42.662;23.352;2022-12-18T06:15:25;10.93;;;6.20;;
41077;SDS011;26823;42.662;23.352;2022-12-18T06:17:51;10.30;;;5.90;;
41077;SDS011;26823;42.662;23.352;2022-12-18T06:20:16;11.85;;;6.38;;
41077;SDS011;26823;42.662;23.352;2022-12-18T06:22:42;12.32;;;6.75;;
41077;SDS011;26823;42.662;23.352;2022-12-18T06:25:07;13.07;;;7.53;;
41077;SDS011;26823;42.662;23.352;2022-12-18T06:27:33;11.55;;;6.80;;
41077;SDS011;26823;42.662;23.352;2022-12-18T06:29:58;9.95;;;6.93;;
41077;SDS011;26823;42.662;23.352;2022-12-18T06:32:24;11.80;;;7.30;;
41077;SDS011;26823;42.662;23.352;2022-12-18T06:34:50;13.52;;;6.35;;
41077;SDS011;26823;42.662;23.352;2022-12-18T06:37:15;12.25;;;6.63;;
41077;SDS011;26823;42.662;23.352;2022-12-18T06:39:41;10.93;;;6.38;;
41077;SDS011;26823;42.662;23.352;2022-12-18T06:42:06;11.75;;;6.00;;
41077;SDS011;26823;42.662;23.352;2022-12-18T06:44:32;11.00;;;6.97;;
41077;SDS011;26823;42.662;23.352;2022-12-18T06:46:57;12.32;;;6.68;;
41077;SDS011;26823;42.662;23.352;2022-12-18T06:49:23;11.40;;;6.20;;
41077;SDS011;26823;42.662;23.352;2022-12-18T06:51:49;10.40;;;6.22;;
41077;SDS011;26823;42.662;23.352;2022-12-18T06:54:14;14.55;;;7.80;;
41077;SDS011;26823;42.662;23.352;2022-12-18T06:56:40;10.25;;;7.00;;
41077;SDS011;26823;42.662;23.352;2022-12-18T06:59:05;11.93;;;6.65;;
41077;SDS011;26823;42.662;23.352;2022-12-18T07:01:31;15.85;;;7.13;;
41077;SDS011;26823;42.662;23.352;2022-12-18T07:03:56;14.85;;;7.07;;
41077;SDS011;26823;42.662;23.352;2022-12-18T07:06:23;13.40;;;7.32;;
41077;SDS011;26823;42.662;23.352;2022-12-18T07:08:50;13.63;;;7.32;;
41077;SDS011;26823;42.662;23.352;2022-12-18T07:11:18;10.02;;;6.20;;
41077;SDS011;26823;42.662;23.352;2022-12-18T07:13:44;13.57;;;6.80;;
41077;SDS011;26823;42.662;23.352;2022-12-18T07:16:14;11.45;;;6.53;;
41077;SDS011;26823;42.662;23.352;2022-12-18T07:18:41;11.38;;;6.18;;
41077;SDS011;26823;42.662;23.352;2022-12-18T07:21:07;9.32;;;5.93;;
41077;SDS011;26823;42.662;23.352;2022-12-18T07:23:35;12.25;;;6.57;;
41077;SDS011;26823;42.662;23.352;2022-12-18T07:26:02;13.00;;;7.13;;
41077;SDS011;26823;42.662;23.352;2022-12-18T07:28:36;14.30;;;7.90;;
41077;SDS011;26823;42.662;23.352;2022-12-18T07:31:06;9.93;;;6.60;;
41077;SDS011;26823;42.662;23.352;2022-12-18T07:33:33;14.80;;;7.13;;
41077;SDS011;26823;42.662;23.352;2022-12-18T07:35:59;12.27;;;7.68;;
41077;SDS011;26823;42.662;23.352;2022-12-18T07:38:25;15.20;;;7.25;;
41077;SDS011;26823;42.662;23.352;2022-12-18T07:40:51;13.88;;;8.50;;
41077;SDS011;26823;42.662;23.352;2022-12-18T07:43:16;14.82;;;8.18;;
41077;SDS011;26823;42.662;23.352;2022-12-18T07:45:42;13.13;;;7.55;;
41077;SDS011;26823;42.662;23.352;2022-12-18T07:48:08;13.30;;;8.05;;
41077;SDS011;26823;42.662;23.352;2022-12-18T07:50:34;17.27;;;7.70;;
41077;SDS011;26823;42.662;23.352;2022-12-18T07:52:59;15.52;;;8.52;;
41077;SDS011;26823;42.662;23.352;2022-12-18T07:55:28;17.30;;;8.80;;
41077;SDS011;26823;42.662;23.352;2022-12-18T07:57:55;15.95;;;8.27;;
41077;SDS011;26823;42.662;23.352;2022-12-18T08:00:21;18.25;;;9.32;;
41077;SDS011;26823;42.662;23.352;2022-12-18T08:02:46;13.95;;;8.05;;
41077;SDS011;26823;42.662;23.352;2022-12-18T08:05:12;17.70;;;8.20;;
41077;SDS011;26823;42.662;23.352;2022-12-18T08:07:38;19.52;;;8.38;;
41077;SDS011;26823;42.662;23.352;2022-12-18T08:10:04;16.05;;;8.60;;
41077;SDS011;26823;42.662;23.352;2022-12-18T08:12:30;18.98;;;8.73;;
41077;SDS011;26823;42.662;23.352;2022-12-18T08:14:55;14.90;;;9.15;;
41077;SDS011;26823;42.662;23.352;2022-12-18T08:17:21;15.85;;;8.48;;
41077;SDS011;26823;42.662;23.352;2022-12-18T08:19:46;16.35;;;9.18;;
41077;SDS011;26823;42.662;23.352;2022-12-18T08:22:11;15.20;;;8.75;;
41077;SDS011;26823;42.662;23.352;2022-12-18T08:24:37;18.77;;;10.05;;
41077;SDS011;26823;42.662;23.352;2022-12-18T08:27:02;15.55;;;8.30;;
41077;SDS011;26823;42.662;23.352;2022-12-18T08:29:28;20.05;;;9.55;;
41077;SDS011;26823;42.662;23.352;2022-12-18T08:31:53;20.33;;;9.32;;
41077;SDS011;26823;42.662;23.352;2022-12-18T08:34:18;16.30;;;9.50;;
41077;SDS011;26823;42.662;23.352;2022-12-18T08:36:44;23.85;;;10.40;;
41077;SDS011;26823;42.662;23.352;2022-12-18T08:39:09;16.60;;;8.38;;
41077;SDS011;26823;42.662;23.352;2022-12-18T08:41:35;17.23;;;9.65;;
41077;SDS011;26823;42.662;23.352;2022-12-18T08:44:00;17.13;;;8.40;;
41077;SDS011;26823;42.662;23.352;2022-12-18T08:46:44;19.05;;;9.52;;
41077;SDS011;26823;42.662;23.352;2022-12-18T08:49:10;16.65;;;9.13;;
41077;SDS011;26823;42.662;23.352;2022-12-18T08:51:36;19.17;;;9.85;;
41077;SDS011;26823;42.662;23.352;2022-12-18T08:54:03;13.30;;;8.02;;
41077;SDS011;26823;42.662;23.352;2022-12-18T08:56:29;16.98;;;7.40;;
41077;SDS011;26823;42.662;23.352;2022-12-18T08:58:55;15.15;;;7.95;;
41077;SDS011;26823;42.662;23.352;2022-12-18T09:01:21;16.20;;;8.88;;
41077;SDS011;26823;42.662;23.352;2022-12-18T09:03:48;14.52;;;8.30;;
41077;SDS011;26823;42.662;23.352;2022-12-18T09:06:15;19.52;;;8.48;;
41077;SDS011;26823;42.662;23.352;2022-12-18T09:08:42;13.95;;;6.78;;
41077;SDS011;26823;42.662;23.352;2022-12-18T09:11:13;15.65;;;8.73;;
41077;SDS011;26823;42.662;23.352;2022-12-18T09:13:40;16.38;;;8.10;;
41077;SDS011;26823;42.662;23.352;2022-12-18T09:16:05;13.05;;;7.72;;
41077;SDS011;26823;42.662;23.352;2022-12-18T09:18:31;15.68;;;8.10;;
41077;SDS011;26823;42.662;23.352;2022-12-18T09:20:56;16.70;;;8.40;;
41077;SDS011;26823;42.662;23.352;2022-12-18T09:23:22;17.58;;;10.18;;
41077;SDS011;26823;42.662;23.352;2022-12-18T09:25:47;16.90;;;9.05;;
41077;SDS011;26823;42.662;23.352;2022-12-18T09:28:14;14.60;;;8.15;;
41077;SDS011;26823;42.662;23.352;2022-12-18T09:30:41;15.43;;;8.30;;
41077;SDS011;26823;42.662;23.352;2022-12-18T09:33:09;15.18;;;8.20;;
41077;SDS011;26823;42.662;23.352;2022-12-18T09:35:37;15.98;;;8.52;;
41077;SDS011;26823;42.662;23.352;2022-12-18T09:38:04;17.17;;;8.10;;
41077;SDS011;26823;42.662;23.352;2022-12-18T09:40:32;16.17;;;7.30;;
41077;SDS011;26823;42.662;23.352;2022-12-18T09:43:03;15.20;;;8.40;;
41077;SDS011;26823;42.662;23.352;2022-12-18T09:45:33;24.10;;;11.85;;
41077;SDS011;26823;42.662;23.352;2022-12-18T09:48:05;17.63;;;9.25;;
41077;SDS011;26823;42.662;23.352;2022-12-18T09:50:40;18.20;;;7.90;;
41077;SDS011;26823;42.662;23.352;2022-12-18T09:53:09;14.25;;;7.65;;
41077;SDS011;26823;42.662;23.352;2022-12-18T09:55:44;14.25;;;7.93;;
41077;SDS011;26823;42.662;23.352;2022-12-18T10:00:41;16.80;;;7.95;;
41077;SDS011;26823;42.662;23.352;2022-12-18T10:03:11;12.77;;;7.22;;
41077;SDS011;26823;42.662;23.352;2022-12-18T10:14:17;13.25;;;7.55;;
41077;SDS011;26823;42.662;23.352;2022-12-18T10:17:02;15.57;;;7.30;;
41077;SDS011;26823;42.662;23.352;2022-12-18T10:19:41;13.60;;;7.65;;
41077;SDS011;26823;42.662;23.352;2022-12-18T10:22:22;15.13;;;7.90;;
41077;SDS011;26823;42.662;23.352;2022-12-18T10:24:55;14.65;;;7.47;;
41077;SDS011;26823;42.662;23.352;2022-12-18T10:27:29;16.25;;;7.97;;
41077;SDS011;26823;42.662;23.352;2022-12-18T10:29:55;20.50;;;8.82;;
41077;SDS011;26823;42.662;23.352;2022-12-18T10:32:26;12.40;;;7.65;;
41077;SDS011;26823;42.662;23.352;2022-12-18T10:34:54;15.95;;;7.65;;
41077;SDS011;26823;42.662;23.352;2022-12-18T10:37:25;17.27;;;7.47;;
41077;SDS011;26823;42.662;23.352;2022-12-18T10:40:07;15.52;;;7.85;;
41077;SDS011;26823;42.662;23.352;2022-12-18T10:42:33;11.60;;;7.15;;
41077;SDS011;26823;42.662;23.352;2022-12-18T10:45:05;15.85;;;7.88;;
41077;SDS011;26823;42.662;23.352;2022-12-18T10:47:34;13.57;;;8.07;;
41077;SDS011;26823;42.662;23.352;2022-12-18T10:50:00;13.32;;;7.95;;
41077;SDS011;26823;42.662;23.352;2022-12-18T10:52:26;11.85;;;6.80;;
41077;SDS011;26823;42.662;23.352;2022-12-18T10:54:53;16.63;;;7.97;;
41077;SDS011;26823;42.662;23.352;2022-12-18T10:59:52;16.08;;;8.90;;
41077;SDS011;26823;42.662;23.352;2022-12-18T11:02:28;14.70;;;7.47;;
41077;SDS011;26823;42.662;23.352;2022-12-18T11:05:00;13.68;;;7.63;;
41077;SDS011;26823;42.662;23.352;2022-12-18T11:07:26;13.73;;;7.80;;
41077;SDS011;26823;42.662;23.352;2022-12-18T11:10:15;12.82;;;7.57;;
41077;SDS011;26823;42.662;23.352;2022-12-18T11:12:42;12.93;;;7.90;;
41077;SDS011;26823;42.662;23.352;2022-12-18T11:15:19;13.77;;;8.10;;
41077;SDS011;26823;42.662;23.352;2022-12-18T11:17:54;12.75;;;7.40;;
41077;SDS011;26823;42.662;23.352;2022-12-18T11:23:01;12.68;;;6.65;;
41077;SDS011;26823;42.662;23.352;2022-12-18T11:25:29;12.65;;;6.75;;
41077;SDS011;26823;42.662;23.352;2022-12-18T11:27:56;11.25;;;6.60;;
41077;SDS011;26823;42.662;23.352;2022-12-18T11:33:04;12.52;;;6.55;;
41077;SDS011;26823;42.662;23.352;2022-12-18T11:38:10;12.27;;;7.13;;
41077;SDS011;26823;42.662;23.352;2022-12-18T11:40:51;13.95;;;7.00;;
41077;SDS011;26823;42.662;23.352;2022-12-18T11:43:34;15.63;;;7.32;;
41077;SDS011;26823;42.662;23.352;2022-12-18T11:46:22;13.07;;;6.55;;
41077;SDS011;26823;42.662;23.352;2022-12-18T11:48:58;12.35;;;6.80;;
41077;SDS011;26823;42.662;23.352;2022-12-18T11:51:32;16.50;;;7.78;;
41077;SDS011;26823;42.662;23.352;2022-12-18T11:54:00;12.25;;;6.88;;
41077;SDS011;26823;42.662;23.352;2022-12-18T12:23:40;16.27;;;7.72;;
41077;SDS011;26823;42.662;23.352;2022-12-18T12:35:15;14.85;;;6.60;;
41077;SDS011;26823;42.662;23.352;2022-12-18T12:38:08;16.98;;;7.25;;
41077;SDS011;26823;42.662;23.352;2022-12-18T12:40:35;12.93;;;6.60;;
41077;SDS011;26823;42.662;23.352;2022-12-18T12:46:14;15.98;;;7.97;;
41077;SDS011;26823;42.662;23.352;2022-12-18T12:51:13;14.00;;;7.65;;
41077;SDS011;26823;42.662;23.352;2022-12-18T12:53:42;15.60;;;8.00;;
41077;SDS011;26823;42.662;23.352;2022-12-18T12:56:08;16.63;;;8.15;;
41077;SDS011;26823;42.662;23.352;2022-12-18T12:58:40;14.18;;;7.05;;
41077;SDS011;26823;42.662;23.352;2022-12-18T13:09:14;16.40;;;8.25;;
41077;SDS011;26823;42.662;23.352;2022-12-18T13:11:40;15.60;;;8.00;;
41077;SDS011;26823;42.662;23.352;2022-12-18T13:14:36;14.48;;;8.18;;
41077;SDS011;26823;42.662;23.352;2022-12-18T13:19:47;16.88;;;8.63;;
41077;SDS011;26823;42.662;23.352;2022-12-18T13:22:34;15.90;;;8.57;;
41077;SDS011;26823;42.662;23.352;2022-12-18T13:25:02;14.13;;;7.43;;
41077;SDS011;26823;42.662;23.352;2022-12-18T13:41:00;18.23;;;8.90;;
41077;SDS011;26823;42.662;23.352;2022-12-18T13:43:27;14.63;;;8.48;;
41077;SDS011;26823;42.662;23.352;2022-12-18T13:46:42;14.82;;;8.73;;
41077;SDS011;26823;42.662;23.352;2022-12-18T13:48:56;13.88;;;7.57;;
41077;SDS011;26823;42.662;23.352;2022-12-18T13:51:44;15.48;;;7.75;;
41077;SDS011;26823;42.662;23.352;2022-12-18T13:54:30;14.68;;;8.02;;
41077;SDS011;26823;42.662;23.352;2022-12-18T13:56:57;15.10;;;8.10;;
41077;SDS011;26823;42.662;23.352;2022-12-18T13:59:26;17.10;;;8.73;;
41077;SDS011;26823;42.662;23.352;2022-12-18T14:02:15;14.68;;;8.23;;
41077;SDS011;26823;42.662;23.352;2022-12-18T14:04:44;16.35;;;8.98;;
41077;SDS011;26823;42.662;23.352;2022-12-18T14:07:12;14.38;;;8.05;;
41077;SDS011;26823;42.662;23.352;2022-12-18T14:09:40;12.25;;;7.53;;
41077;SDS011;26823;42.662;23.352;2022-12-18T14:12:14;14.95;;;7.57;;
41077;SDS011;26823;42.662;23.352;2022-12-18T14:15:00;16.17;;;8.15;;
41077;SDS011;26823;42.662;23.352;2022-12-18T14:17:26;13.43;;;8.15;;
41077;SDS011;26823;42.662;23.352;2022-12-18T14:19:52;15.30;;;8.18;;
41077;SDS011;26823;42.662;23.352;2022-12-18T14:22:18;17.50;;;8.32;;
41077;SDS011;26823;42.662;23.352;2022-12-18T14:25:30;14.90;;;7.82;;
41077;SDS011;26823;42.662;23.352;2022-12-18T14:28:02;14.65;;;6.78;;
41077;SDS011;26823;42.662;23.352;2022-12-18T14:30:38;17.50;;;7.22;;
41077;SDS011;26823;42.662;23.352;2022-12-18T14:35:34;10.43;;;6.35;;
41077;SDS011;26823;42.662;23.352;2022-12-18T14:40:46;13.93;;;6.43;;
41077;SDS011;26823;42.662;23.352;2022-12-18T14:43:11;12.65;;;7.68;;
41077;SDS011;26823;42.662;23.352;2022-12-18T14:45:44;13.73;;;7.03;;
41077;SDS011;26823;42.662;23.352;2022-12-18T14:50:36;13.60;;;8.00;;
41077;SDS011;26823;42.662;23.352;2022-12-18T14:53:02;15.93;;;7.65;;
41077;SDS011;26823;42.662;23.352;2022-12-18T14:55:28;14.48;;;7.30;;
41077;SDS011;26823;42.662;23.352;2022-12-18T14:57:54;11.43;;;6.55;;
41077;SDS011;26823;42.662;23.352;2022-12-18T15:00:22;13.25;;;6.88;;
41077;SDS011;26823;42.662;23.352;2022-12-18T15:02:52;13.45;;;6.53;;
41077;SDS011;26823;42.662;23.352;2022-12-18T15:05:23;14.00;;;6.90;;
41077;SDS011;26823;42.662;23.352;2022-12-18T15:07:54;12.57;;;6.45;;
41077;SDS011;26823;42.662;23.352;2022-12-18T15:10:22;11.95;;;6.15;;
41077;SDS011;26823;42.662;23.352;2022-12-18T15:18:10;11.52;;;6.45;;
41077;SDS011;26823;42.662;23.352;2022-12-18T15:20:42;14.90;;;6.22;;
41077;SDS011;26823;42.662;23.352;2022-12-18T15:23:55;14.48;;;7.05;;
41077;SDS011;26823;42.662;23.352;2022-12-18T15:26:18;15.18;;;7.82;;
41077;SDS011;26823;42.662;23.352;2022-12-18T15:28:55;16.83;;;7.53;;
41077;SDS011;26823;42.662;23.352;2022-12-18T15:31:33;13.05;;;6.85;;
41077;SDS011;26823;42.662;23.352;2022-12-18T15:34:10;15.90;;;7.22;;
41077;SDS011;26823;42.662;23.352;2022-12-18T15:36:39;12.90;;;6.80;;
41077;SDS011;26823;42.662;23.352;2022-12-18T15:39:04;12.40;;;6.80;;
41077;SDS011;26823;42.662;23.352;2022-12-18T15:41:30;13.75;;;6.45;;
41077;SDS011;26823;42.662;23.352;2022-12-18T15:43:59;13.63;;;7.20;;
41077;SDS011;26823;42.662;23.352;2022-12-18T15:46:25;14.38;;;7.28;;
41077;SDS011;26823;42.662;23.352;2022-12-18T15:48:52;14.60;;;7.25;;
41077;SDS011;26823;42.662;23.352;2022-12-18T15:53:48;15.05;;;7.80;;
41077;SDS011;26823;42.662;23.352;2022-12-18T15:56:16;14.40;;;8.30;;
41077;SDS011;26823;42.662;23.352;2022-12-18T15:59:01;17.63;;;8.48;;
41077;SDS011;26823;42.662;23.352;2022-12-18T16:01:28;16.17;;;7.63;;
41077;SDS011;26823;42.662;23.352;2022-12-18T16:03:54;13.93;;;6.97;;
41077;SDS011;26823;42.662;23.352;2022-12-18T16:06:21;17.90;;;7.93;;
41077;SDS011;26823;42.662;23.352;2022-12-18T16:08:47;11.70;;;6.38;;
41077;SDS011;26823;42.662;23.352;2022-12-18T16:14:19;16.05;;;7.43;;
41077;SDS011;26823;42.662;23.352;2022-12-18T16:16:47;15.45;;;7.20;;
41077;SDS011;26823;42.662;23.352;2022-12-18T16:19:16;15.48;;;7.97;;
41077;SDS011;26823;42.662;23.352;2022-12-18T16:21:43;13.02;;;7.18;;
41077;SDS011;26823;42.662;23.352;2022-12-18T16:24:19;15.98;;;7.90;;
41077;SDS011;26823;42.662;23.352;2022-12-18T16:26:52;13.38;;;7.63;;
41077;SDS011;26823;42.662;23.352;2022-12-18T16:29:19;14.05;;;8.02;;
41077;SDS011;26823;42.662;23.352;2022-12-18T16:31:49;12.77;;;6.70;;
41077;SDS011;26823;42.662;23.352;2022-12-18T16:34:18;12.30;;;7.35;;
41077;SDS011;26823;42.662;23.352;2022-12-18T16:36:47;14.52;;;7.60;;
41077;SDS011;26823;42.662;23.352;2022-12-18T16:39:14;11.65;;;6.78;;
41077;SDS011;26823;42.662;23.352;2022-12-18T16:41:39;13.48;;;7.63;;
41077;SDS011;26823;42.662;23.352;2022-12-18T16:44:05;11.90;;;6.90;;